EHAM/AMS METAR and TAF weather

Enter ICAO airport designator
Station Type Date Time Source
EHAM METAR 2022/06/25 23:55 UTC NOAA

EHAM 252355Z 15004KT 120V180 7000 -RA FEW004 SCT035 16/16 Q1011 BECMG 9999 NSW


Station Type Date Time Source
EHAM Decoded METAR 2022/06/25 23:55 UTC NOAA

Amsterdam Airport Schiphol, Netherlands (EHAM) 52-18N 004-46E -2M
Jun 25, 2022 - 07:55 PM EDT / 2022.06.25 2355 UTC
Wind: from the SSE (150 degrees) at 5 MPH (4 KT) (direction variable):0
Visibility: 4 mile(s):0
Sky conditions: partly cloudy
Weather: light rain
Temperature: 60 F (16 C)
Dew Point: 60 F (16 C)
Relative Humidity: 100%
Pressure (altimeter): 29.85 in. Hg (1011 hPa)
ob: EHAM 252355Z 15004KT 120V180 7000 -RA FEW004 SCT035 16/16 Q1011 BECMG 9999 NSW
cycle: 0

Station Type Date Time Source
EHAM TAF 2022/06/25 18:27 UTC NOAA

TAF TAF EHAM 251704Z 2518/2624 31006KT 9999 BKN040
TEMPO 2518/2602 6000 RA SHRA SCT030CB BKN035 PROB30
TEMPO 2523/2602 4000 BKN012 SCT030CB
BECMG 2600/2603 21007KT SCT025 PROB30
TEMPO 2602/2606 BKN015

Example: see airport list